createdAt,value
2018-05-02T00:00:21.769Z,13.20
2018-05-02T00:02:50.017Z,13.10
2018-05-02T00:05:19.021Z,13.20
2018-05-02T00:07:48.021Z,13.10
2018-05-02T00:10:16.275Z,13.10
2018-05-02T00:12:44.526Z,13.10
2018-05-02T00:15:12.754Z,13.20
2018-05-02T00:17:41.021Z,13.20
2018-05-02T00:20:10.018Z,13.10
2018-05-02T00:22:38.254Z,13.10
2018-05-02T00:25:06.500Z,13.10
2018-05-02T00:27:34.743Z,13.00
2018-05-02T00:30:03.734Z,13.00
2018-05-02T00:32:32.890Z,13.00
2018-05-02T00:35:01.893Z,13.00
2018-05-02T00:37:30.203Z,13.00
2018-05-02T00:39:59.473Z,13.00
2018-05-02T00:42:27.706Z,13.00
2018-05-02T00:44:55.951Z,13.00
2018-05-02T00:47:24.952Z,12.90
2018-05-02T00:49:53.190Z,12.90
2018-05-02T00:52:21.457Z,12.90
2018-05-02T00:54:49.797Z,12.90
2018-05-02T00:57:18.026Z,12.90
2018-05-02T00:59:46.265Z,12.80
2018-05-02T01:02:14.512Z,12.80
2018-05-02T01:04:42.769Z,12.80
2018-05-02T01:07:11.767Z,12.80
2018-05-02T01:09:40.761Z,12.70
2018-05-02T01:12:09.012Z,12.70
2018-05-02T01:14:37.251Z,12.80
2018-05-02T01:17:05.489Z,12.70
2018-05-02T01:19:34.067Z,12.70
2018-05-02T01:22:03.070Z,12.60
2018-05-02T01:24:31.297Z,12.50
2018-05-02T01:26:59.544Z,12.60
2018-05-02T01:29:27.787Z,12.60
2018-05-02T01:31:56.791Z,12.60
2018-05-02T01:34:25.362Z,12.60
2018-05-02T01:36:54.358Z,12.50
2018-05-02T01:39:23.355Z,12.50
2018-05-02T01:41:51.595Z,12.50
2018-05-02T01:44:19.825Z,12.50
2018-05-02T01:46:48.361Z,12.50
2018-05-02T01:49:24.456Z,12.50
2018-05-02T01:51:52.700Z,12.50
2018-05-02T01:54:20.933Z,12.50
2018-05-02T01:56:49.473Z,12.50
2018-05-02T01:59:18.476Z,12.50
2018-05-02T02:01:46.702Z,12.40
2018-05-02T02:04:14.948Z,12.50
2018-05-02T02:06:43.179Z,12.40
2018-05-02T02:09:12.193Z,12.40
2018-05-02T02:11:40.432Z,12.30
2018-05-02T02:14:08.663Z,12.40
2018-05-02T02:16:36.909Z,12.40
2018-05-02T02:19:05.918Z,12.40
2018-05-02T02:21:34.209Z,12.40
2018-05-02T02:24:02.438Z,12.40
2018-05-02T02:26:31.069Z,12.40
2018-05-02T02:28:59.296Z,12.40
2018-05-02T02:31:27.620Z,12.40
2018-05-02T02:33:55.955Z,12.30
2018-05-02T02:36:24.866Z,12.40
2018-05-02T02:38:53.106Z,12.30
2018-05-02T02:41:21.346Z,12.40
2018-05-02T02:43:49.577Z,12.40
2018-05-02T02:46:18.596Z,12.40
2018-05-02T02:48:46.885Z,12.40
2018-05-02T02:51:15.123Z,12.40
2018-05-02T02:53:44.129Z,12.40
2018-05-02T02:56:12.375Z,12.30
2018-05-02T02:58:40.606Z,12.40
2018-05-02T03:01:08.872Z,12.40
2018-05-02T03:03:37.097Z,12.30
2018-05-02T03:06:06.101Z,12.30
2018-05-02T03:08:34.341Z,12.20
2018-05-02T03:11:02.582Z,12.20
2018-05-02T03:13:30.826Z,12.30
2018-05-02T03:15:59.069Z,12.30
2018-05-02T03:18:27.295Z,12.30
2018-05-02T03:20:56.367Z,12.30
2018-05-02T03:23:24.541Z,12.30
2018-05-02T03:25:53.556Z,12.30
2018-05-02T03:28:22.570Z,12.40
2018-05-02T03:30:50.802Z,12.30
2018-05-02T03:33:19.050Z,12.40
2018-05-02T03:35:47.278Z,12.40
2018-05-02T03:38:15.537Z,12.40
2018-05-02T03:40:43.762Z,12.40
2018-05-02T03:43:12.004Z,12.30
2018-05-02T03:45:41.014Z,12.30
2018-05-02T03:48:09.261Z,12.20
2018-05-02T03:50:38.286Z,12.20
2018-05-02T03:53:06.548Z,12.20
2018-05-02T03:55:34.751Z,12.20
2018-05-02T03:58:03.008Z,12.20
2018-05-02T04:00:49.170Z,12.20
2018-05-02T04:03:36.047Z,12.20
2018-05-02T04:09:32.150Z,12.20
2018-05-02T04:12:00.393Z,12.20
2018-05-02T04:14:28.630Z,12.20
2018-05-02T04:16:56.883Z,12.30
2018-05-02T04:19:25.117Z,12.30
2018-05-02T04:21:53.363Z,12.30
2018-05-02T04:24:21.594Z,12.30
2018-05-02T04:26:50.604Z,12.30
2018-05-02T04:29:18.832Z,12.20
2018-05-02T04:31:47.073Z,12.30
2018-05-02T04:34:15.308Z,12.20
2018-05-02T04:36:44.324Z,12.20
2018-05-02T04:39:12.627Z,12.20
2018-05-02T04:41:40.882Z,12.20
2018-05-02T04:44:09.109Z,12.20
2018-05-02T04:46:37.338Z,12.30
2018-05-02T04:49:05.584Z,12.30
2018-05-02T04:51:34.589Z,12.30
2018-05-02T04:54:02.822Z,12.20
2018-05-02T04:56:31.062Z,12.30
2018-05-02T04:58:59.310Z,12.30
2018-05-02T05:01:27.549Z,12.40
2018-05-02T05:03:55.797Z,12.40
2018-05-02T05:06:24.033Z,12.50
2018-05-02T05:08:52.285Z,12.50
2018-05-02T05:11:20.529Z,12.50
2018-05-02T05:13:48.763Z,12.50
2018-05-02T05:16:17.002Z,12.50
2018-05-02T05:18:45.508Z,12.50
2018-05-02T05:21:14.501Z,12.60
2018-05-02T05:23:43.502Z,12.50
2018-05-02T05:26:12.505Z,12.60
2018-05-02T05:28:40.746Z,12.50
2018-05-02T05:31:08.988Z,12.60
2018-05-02T05:33:37.214Z,12.70
2018-05-02T05:36:06.370Z,12.80
2018-05-02T05:38:34.602Z,12.70
2018-05-02T05:41:02.836Z,12.70
2018-05-02T05:43:31.092Z,12.70
2018-05-02T05:45:59.317Z,12.70
2018-05-02T05:48:27.556Z,12.80
2018-05-02T05:50:55.792Z,12.80
2018-05-02T05:53:24.034Z,12.70
2018-05-02T05:55:53.045Z,12.70
2018-05-02T05:58:21.510Z,12.70
2018-05-02T06:00:50.531Z,12.80
2018-05-02T06:03:19.502Z,12.80
2018-05-02T06:05:48.522Z,12.80
2018-05-02T06:08:16.761Z,12.80
2018-05-02T06:10:45.784Z,12.80
2018-05-02T06:13:14.014Z,12.80
2018-05-02T06:15:42.258Z,12.90
2018-05-02T06:18:10.490Z,12.90
2018-05-02T06:20:38.751Z,12.90
2018-05-02T06:23:07.745Z,13.00
2018-05-02T06:25:36.742Z,13.10
2018-05-02T06:28:05.768Z,13.20
2018-05-02T06:30:33.994Z,13.20
2018-05-02T06:33:02.222Z,13.30
2018-05-02T06:35:30.461Z,13.30
2018-05-02T06:37:59.561Z,13.40
2018-05-02T06:40:27.729Z,13.40
2018-05-02T06:42:56.732Z,13.60
2018-05-02T06:45:25.738Z,13.70
2018-05-02T06:47:53.985Z,13.60
2018-05-02T06:50:22.273Z,13.80
2018-05-02T06:52:50.467Z,13.90
2018-05-02T06:55:18.709Z,14.00
2018-05-02T06:57:46.946Z,14.10
2018-05-02T07:00:15.182Z,14.10
2018-05-02T07:02:43.426Z,14.20
2018-05-02T07:05:11.671Z,14.30
2018-05-02T07:07:39.905Z,14.30
2018-05-02T07:10:08.138Z,14.20
2018-05-02T07:12:36.386Z,14.20
2018-05-02T07:15:04.623Z,14.20
2018-05-02T07:17:33.643Z,14.30
2018-05-02T07:20:01.925Z,14.20
2018-05-02T07:22:30.325Z,14.40
2018-05-02T07:24:58.554Z,14.50
2018-05-02T07:27:27.549Z,14.60
2018-05-02T07:29:55.790Z,14.60
2018-05-02T07:32:24.038Z,14.70
2018-05-02T07:34:52.286Z,14.70
2018-05-02T07:37:20.546Z,14.60
2018-05-02T07:39:49.565Z,14.60
2018-05-02T07:42:17.805Z,14.50
2018-05-02T07:44:46.813Z,14.50
2018-05-02T07:47:15.057Z,14.50
2018-05-02T07:49:43.297Z,14.50
2018-05-02T07:52:11.554Z,14.50
2018-05-02T07:54:39.790Z,14.50
2018-05-02T07:57:08.039Z,14.50
2018-05-02T07:59:36.270Z,14.50
2018-05-02T08:02:04.517Z,14.50
2018-05-02T08:04:32.746Z,14.50
2018-05-02T08:07:00.998Z,14.40
2018-05-02T08:09:29.230Z,14.40
2018-05-02T08:11:57.483Z,14.40
2018-05-02T08:14:25.944Z,14.30
2018-05-02T08:16:54.175Z,14.30
2018-05-02T08:19:23.174Z,14.20
2018-05-02T08:21:52.190Z,14.20
2018-05-02T08:24:20.425Z,14.10
2018-05-02T08:26:48.669Z,14.20
2018-05-02T08:29:17.089Z,14.20
2018-05-02T08:31:46.089Z,14.40
2018-05-02T08:34:15.077Z,14.50
2018-05-02T08:36:44.090Z,14.70
2018-05-02T08:39:12.345Z,14.60
2018-05-02T08:41:40.573Z,14.90
2018-05-02T08:44:08.807Z,15.20
2018-05-02T08:46:37.817Z,15.90
2018-05-02T08:49:06.050Z,15.80
2018-05-02T08:51:34.303Z,16.20
2018-05-02T08:54:02.535Z,16.50
2018-05-02T08:56:31.814Z,16.80
2018-05-02T08:59:00.078Z,16.70
2018-05-02T09:01:28.305Z,16.80
2018-05-02T09:03:56.549Z,16.70
2018-05-02T09:06:25.546Z,16.50
2018-05-02T09:08:54.585Z,16.50
2018-05-02T09:11:22.809Z,16.50
2018-05-02T09:13:51.810Z,16.30
2018-05-02T09:16:20.814Z,16.20
2018-05-02T09:18:49.069Z,16.20
2018-05-02T09:21:18.066Z,16.30
2018-05-02T09:23:47.062Z,16.30
2018-05-02T09:26:16.326Z,16.30
2018-05-02T09:28:44.565Z,16.30
2018-05-02T09:31:12.794Z,16.50
2018-05-02T09:33:41.029Z,16.70
2018-05-02T09:36:09.266Z,16.90
2018-05-02T09:38:38.274Z,17.10
2018-05-02T09:41:06.510Z,17.00
2018-05-02T09:43:34.758Z,17.10
2018-05-02T09:46:02.989Z,17.10
2018-05-02T09:48:31.233Z,17.20
2018-05-02T09:50:59.462Z,17.30
2018-05-02T09:53:27.954Z,17.40
2018-05-02T09:55:56.181Z,17.60
2018-05-02T09:58:25.177Z,17.60
2018-05-02T10:00:54.190Z,17.60
2018-05-02T10:03:22.422Z,17.50
2018-05-02T10:05:50.686Z,17.50
2018-05-02T10:08:18.918Z,17.40
2018-05-02T10:10:47.162Z,17.30
2018-05-02T10:13:15.389Z,17.30
2018-05-02T10:15:43.625Z,17.20
2018-05-02T10:18:12.634Z,17.10
2018-05-02T10:20:40.877Z,17.10
2018-05-02T10:23:09.125Z,17.00
2018-05-02T10:25:37.346Z,17.00
2018-05-02T10:28:06.616Z,16.80
2018-05-02T10:30:34.848Z,16.80
2018-05-02T10:33:03.083Z,16.80
2018-05-02T10:35:32.094Z,16.70
2018-05-02T10:38:00.326Z,16.70
2018-05-02T10:40:28.554Z,16.60
2018-05-02T10:42:56.921Z,16.60
2018-05-02T10:45:25.166Z,16.60
2018-05-02T10:47:53.405Z,16.70
2018-05-02T10:50:21.664Z,16.70
2018-05-02T10:52:50.644Z,16.80
2018-05-02T10:55:18.886Z,16.70
2018-05-02T10:57:47.129Z,16.80
2018-05-02T11:00:15.362Z,16.90
2018-05-02T11:02:44.378Z,17.00
2018-05-02T11:05:12.601Z,16.90
2018-05-02T11:07:40.850Z,17.00
2018-05-02T11:10:09.085Z,16.90
2018-05-02T11:12:37.322Z,17.00
2018-05-02T11:15:05.582Z,17.00
2018-05-02T11:17:33.818Z,17.10
2018-05-02T11:20:02.053Z,17.20
2018-05-02T11:22:30.302Z,17.30
2018-05-02T11:24:58.546Z,17.40
2018-05-02T11:27:26.785Z,17.40
2018-05-02T11:29:55.034Z,17.40
2018-05-02T11:32:23.282Z,17.40
2018-05-02T11:34:51.768Z,17.30
2018-05-02T11:37:20.002Z,17.30
2018-05-02T11:39:49.008Z,17.50
2018-05-02T11:42:18.024Z,17.50
2018-05-02T11:44:46.273Z,17.50
2018-05-02T11:47:15.513Z,17.50
2018-05-02T11:49:43.756Z,17.40
2018-05-02T11:52:12.745Z,17.60
2018-05-02T11:54:41.761Z,17.70
2018-05-02T11:57:09.994Z,17.70
2018-05-02T11:59:38.221Z,17.90
2018-05-02T12:02:06.465Z,18.10
2018-05-02T12:04:35.465Z,18.70
2018-05-02T12:07:03.718Z,18.60
2018-05-02T12:09:32.718Z,19.40
2018-05-02T12:12:01.714Z,19.60
2018-05-02T12:14:30.728Z,19.80
2018-05-02T12:16:59.226Z,19.70
2018-05-02T12:19:27.465Z,19.90
2018-05-02T12:21:56.538Z,20.10
2018-05-02T12:24:24.721Z,20.00
2018-05-02T12:26:53.714Z,20.00
2018-05-02T12:29:22.721Z,19.90
2018-05-02T12:31:51.738Z,19.90
2018-05-02T12:34:19.981Z,19.80
2018-05-02T12:36:48.991Z,19.80
2018-05-02T12:39:17.226Z,19.80
2018-05-02T12:41:45.473Z,19.90
2018-05-02T12:44:13.704Z,19.90
2018-05-02T12:46:42.731Z,19.80
2018-05-02T12:49:11.750Z,19.80
2018-05-02T12:51:39.986Z,19.80
2018-05-02T12:54:08.229Z,19.80
2018-05-02T12:56:36.549Z,19.70
2018-05-02T12:59:04.701Z,19.80
2018-05-02T13:01:32.945Z,19.70
2018-05-02T13:04:01.189Z,19.80
2018-05-02T13:06:29.437Z,20.00
2018-05-02T13:08:57.674Z,20.20
2018-05-02T13:11:25.917Z,20.50
2018-05-02T13:13:54.145Z,20.70
2018-05-02T13:16:23.153Z,20.70
2018-05-02T13:18:51.386Z,20.60
2018-05-02T13:21:19.625Z,20.40
2018-05-02T13:23:47.853Z,20.30
2018-05-02T13:26:16.861Z,20.20
2018-05-02T13:28:45.886Z,20.10
2018-05-02T13:31:14.121Z,20.10
2018-05-02T13:33:43.128Z,19.90
2018-05-02T13:36:12.138Z,19.90
2018-05-02T13:38:40.384Z,19.80
2018-05-02T13:41:09.386Z,19.70
2018-05-02T13:43:38.400Z,19.50
2018-05-02T13:46:06.630Z,19.50
2018-05-02T13:48:34.881Z,19.40
2018-05-02T13:51:03.118Z,19.30
2018-05-02T13:53:31.362Z,19.20
2018-05-02T13:55:59.594Z,19.20
2018-05-02T13:58:27.845Z,19.10
2018-05-02T14:00:56.183Z,19.10
2018-05-02T14:03:25.085Z,19.00
2018-05-02T14:05:54.095Z,19.00
2018-05-02T14:08:23.162Z,18.90
2018-05-02T14:10:51.486Z,18.90
2018-05-02T14:13:19.723Z,18.80
2018-05-02T14:15:47.949Z,18.80
2018-05-02T14:18:16.194Z,18.80
2018-05-02T14:20:44.426Z,18.80
2018-05-02T14:23:12.689Z,18.80
2018-05-02T14:25:40.898Z,18.90
2018-05-02T14:28:09.351Z,18.90
2018-05-02T14:30:37.581Z,18.90
2018-05-02T14:33:05.817Z,18.80
2018-05-02T14:35:34.061Z,18.80
2018-05-02T14:38:02.374Z,18.80
2018-05-02T14:40:30.570Z,18.80
2018-05-02T14:42:59.577Z,18.90
2018-05-02T14:45:27.813Z,18.80
2018-05-02T14:47:56.827Z,18.90
2018-05-02T14:50:25.830Z,18.90
2018-05-02T14:52:54.062Z,18.90
2018-05-02T14:55:22.302Z,18.90
2018-05-02T14:57:50.549Z,19.00
2018-05-02T15:00:19.545Z,19.00
2018-05-02T15:02:48.549Z,19.00
2018-05-02T15:05:16.794Z,19.00
2018-05-02T15:07:45.042Z,19.10
2018-05-02T15:10:13.290Z,19.10
2018-05-02T15:12:41.537Z,19.10
2018-05-02T15:15:10.529Z,19.20
2018-05-02T15:17:39.554Z,19.20
2018-05-02T15:20:07.780Z,19.20
2018-05-02T15:22:36.026Z,19.20
2018-05-02T15:25:04.266Z,19.20
2018-05-02T15:27:32.514Z,19.20
2018-05-02T15:30:01.534Z,19.10
2018-05-02T15:32:29.765Z,19.10
2018-05-02T15:34:58.010Z,19.10
2018-05-02T15:37:26.241Z,19.10
2018-05-02T15:39:55.249Z,19.20
2018-05-02T15:42:23.481Z,19.10
2018-05-02T15:44:51.710Z,19.10
2018-05-02T15:47:19.945Z,19.10
2018-05-02T15:49:48.941Z,19.00
2018-05-02T15:52:17.953Z,19.00
2018-05-02T15:54:46.945Z,18.90
2018-05-02T15:57:15.192Z,18.90
2018-05-02T15:59:43.419Z,19.00
2018-05-02T16:02:11.650Z,19.00
2018-05-02T16:04:39.894Z,19.00
2018-05-02T16:07:08.149Z,19.10
2018-05-02T16:09:36.379Z,19.10
2018-05-02T16:12:04.845Z,19.10
2018-05-02T16:14:33.079Z,19.10
2018-05-02T16:17:01.310Z,19.10
2018-05-02T16:19:30.550Z,19.10
2018-05-02T16:21:58.786Z,19.00
2018-05-02T16:24:27.782Z,19.10
2018-05-02T16:26:56.814Z,19.10
2018-05-02T16:29:25.056Z,19.00
2018-05-02T16:31:54.058Z,19.10
2018-05-02T16:34:22.303Z,19.00
2018-05-02T16:36:50.546Z,19.00
2018-05-02T16:39:18.796Z,19.00
2018-05-02T16:41:47.026Z,19.00
2018-05-02T16:44:15.258Z,18.90
2018-05-02T16:46:43.519Z,18.90
2018-05-02T16:49:11.745Z,18.80
2018-05-02T16:51:39.990Z,18.80
2018-05-02T16:54:08.218Z,18.80
2018-05-02T16:56:37.286Z,18.80
2018-05-02T16:59:05.462Z,18.70
2018-05-02T17:01:33.721Z,18.70
2018-05-02T17:04:01.986Z,18.60
2018-05-02T17:06:30.273Z,18.60
2018-05-02T17:08:58.526Z,18.60
2018-05-02T17:11:27.450Z,18.50
2018-05-02T17:13:55.686Z,18.50
2018-05-02T17:16:23.917Z,18.40
2018-05-02T17:18:52.157Z,18.40
2018-05-02T17:21:20.428Z,18.30
2018-05-02T17:23:48.678Z,18.30
2018-05-02T17:26:16.917Z,18.30
2018-05-02T17:28:45.153Z,18.30
2018-05-02T17:31:13.423Z,18.30
2018-05-02T17:33:41.653Z,18.30
2018-05-02T17:36:09.979Z,18.20
2018-05-02T17:38:38.252Z,18.10
2018-05-02T17:41:06.481Z,18.10
2018-05-02T17:43:34.734Z,18.10
2018-05-02T17:46:02.974Z,18.00
2018-05-02T17:48:31.210Z,18.00
2018-05-02T17:51:00.221Z,17.90
2018-05-02T17:53:29.235Z,17.80
2018-05-02T17:55:57.490Z,17.80
2018-05-02T17:58:26.497Z,17.70
2018-05-02T18:00:54.729Z,17.60
2018-05-02T18:03:22.970Z,17.60
2018-05-02T18:05:51.214Z,17.60
2018-05-02T18:08:19.458Z,17.50
2018-05-02T18:10:47.689Z,17.40
2018-05-02T18:13:15.915Z,17.40
2018-05-02T18:15:44.161Z,17.30
2018-05-02T18:18:12.641Z,17.30
2018-05-02T18:20:40.878Z,17.30
2018-05-02T18:23:09.113Z,17.20
2018-05-02T18:25:37.358Z,17.20
2018-05-02T18:28:05.630Z,17.20
2018-05-02T18:30:33.870Z,17.10
2018-05-02T18:33:02.867Z,17.10
2018-05-02T18:35:31.106Z,17.10
2018-05-02T18:37:59.346Z,17.10
2018-05-02T18:40:27.578Z,17.00
2018-05-02T18:42:56.599Z,16.90
2018-05-02T18:45:24.827Z,16.90
2018-05-02T18:47:53.078Z,16.90
2018-05-02T18:50:21.317Z,16.90
2018-05-02T18:52:49.811Z,16.80
2018-05-02T18:55:18.046Z,16.80
2018-05-02T18:57:46.277Z,16.80
2018-05-02T19:00:14.526Z,16.70
2018-05-02T19:02:42.759Z,16.70
2018-05-02T19:05:11.002Z,16.80
2018-05-02T19:07:39.466Z,16.80
2018-05-02T19:10:07.743Z,16.80
2018-05-02T19:12:35.976Z,16.80
2018-05-02T19:15:04.217Z,16.70
2018-05-02T19:17:32.697Z,16.80
2018-05-02T19:20:06.462Z,16.70
2018-05-02T19:22:34.758Z,16.70
2018-05-02T19:25:08.511Z,16.60
2018-05-02T19:27:36.749Z,16.60
2018-05-02T19:30:04.997Z,16.50
2018-05-02T19:32:38.625Z,16.50
2018-05-02T19:35:06.853Z,16.50
2018-05-02T19:37:36.131Z,16.40
2018-05-02T19:40:09.937Z,16.30
2018-05-02T19:45:50.164Z,16.30
2018-05-02T19:48:18.429Z,16.30
2018-05-02T19:50:51.991Z,16.20
2018-05-02T19:53:20.239Z,16.20
2018-05-02T19:55:48.510Z,16.20
2018-05-02T19:58:16.747Z,16.20
2018-05-02T20:00:51.254Z,16.10
2018-05-02T20:03:20.273Z,16.10
2018-05-02T20:05:48.509Z,16.10
2018-05-02T20:08:22.441Z,16.10
2018-05-02T20:10:57.104Z,16.00
2018-05-02T20:13:30.871Z,16.00
2018-05-02T20:15:59.882Z,16.00
2018-05-02T20:18:28.445Z,16.00
2018-05-02T20:20:57.448Z,16.00
2018-05-02T20:23:26.454Z,16.00
2018-05-02T20:25:54.699Z,15.90
2018-05-02T20:28:23.693Z,16.00
2018-05-02T20:30:52.776Z,16.00
2018-05-02T20:33:21.998Z,16.00
2018-05-02T20:35:50.994Z,16.00
2018-05-02T20:38:19.225Z,15.90
2018-05-02T20:40:47.477Z,16.00
2018-05-02T20:43:15.731Z,16.00
2018-05-02T20:45:43.971Z,16.10
2018-05-02T20:48:12.218Z,16.00
2018-05-02T20:50:40.465Z,16.10
2018-05-02T20:53:08.703Z,16.00
2018-05-02T20:55:37.740Z,16.00
2018-05-02T20:58:05.994Z,16.00
2018-05-02T21:00:34.242Z,16.00
2018-05-02T21:03:02.495Z,16.00
2018-05-02T21:05:30.726Z,16.00
2018-05-02T21:07:58.974Z,16.00
2018-05-02T21:10:27.214Z,16.00
2018-05-02T21:12:55.461Z,16.00
2018-05-02T21:15:23.697Z,16.00
2018-05-02T21:17:51.948Z,16.00
2018-05-02T21:20:20.182Z,15.90
2018-05-02T21:22:48.409Z,15.90
2018-05-02T21:25:16.658Z,15.80
2018-05-02T21:27:44.898Z,15.80
2018-05-02T21:30:13.475Z,15.80
2018-05-02T21:32:42.479Z,15.70
2018-05-02T21:35:10.718Z,15.60
2018-05-02T21:37:38.965Z,15.70
2018-05-02T21:40:07.198Z,15.60
2018-05-02T21:42:35.446Z,15.60
2018-05-02T21:45:03.682Z,15.50
2018-05-02T21:47:31.926Z,15.50
2018-05-02T21:50:00.499Z,15.50
2018-05-02T21:52:29.494Z,15.40
2018-05-02T21:54:58.493Z,15.40
2018-05-02T21:57:26.733Z,15.40
2018-05-02T21:59:55.008Z,15.30
2018-05-02T22:02:23.219Z,15.30
2018-05-02T22:04:52.213Z,15.20
2018-05-02T22:07:20.466Z,15.20
2018-05-02T22:09:48.705Z,15.20
2018-05-02T22:12:16.952Z,15.20
2018-05-02T22:14:45.202Z,15.20
2018-05-02T22:17:14.315Z,15.20
2018-05-02T22:19:43.393Z,15.20
2018-05-02T22:22:12.408Z,15.20
2018-05-02T22:24:40.637Z,15.10
2018-05-02T22:27:08.877Z,15.20
2018-05-02T22:29:37.128Z,15.10
2018-05-02T22:32:06.138Z,15.10
2018-05-02T22:34:34.378Z,15.10
2018-05-02T22:37:03.388Z,15.10
2018-05-02T22:39:32.395Z,15.00
2018-05-02T22:42:00.633Z,15.00
2018-05-02T22:44:30.226Z,15.10
2018-05-02T22:46:58.458Z,15.00
2018-05-02T22:49:26.701Z,15.10
2018-05-02T22:51:55.707Z,15.00
2018-05-02T22:54:24.798Z,15.10
2018-05-02T22:56:53.041Z,15.10
2018-05-02T22:59:22.047Z,15.10
2018-05-02T23:01:50.286Z,15.10
2018-05-02T23:04:18.530Z,15.10
2018-05-02T23:06:46.886Z,15.10
2018-05-02T23:09:15.886Z,15.20
2018-05-02T23:11:44.975Z,15.10
2018-05-02T23:14:13.969Z,15.10
2018-05-02T23:16:42.973Z,15.10
2018-05-02T23:19:11.221Z,15.00
2018-05-02T23:21:39.470Z,15.10
2018-05-02T23:24:07.698Z,15.00
2018-05-02T23:26:35.946Z,15.00
2018-05-02T23:29:04.193Z,15.00
2018-05-02T23:31:32.421Z,14.90
2018-05-02T23:34:00.678Z,14.90
2018-05-02T23:36:28.908Z,14.90
2018-05-02T23:38:57.171Z,14.80
2018-05-02T23:41:25.503Z,14.80
2018-05-02T23:43:53.633Z,14.80
2018-05-02T23:46:21.883Z,14.80
2018-05-02T23:48:50.121Z,14.80
2018-05-02T23:51:18.382Z,14.80
2018-05-02T23:53:46.622Z,14.80
2018-05-02T23:56:14.855Z,14.80
2018-05-02T23:58:43.873Z,14.70
